Regional La Paz
EstaciónAerodromoSit. GeograficaDescripción
SLLPInternaciónal El Alto16-08S-68-10W SLLP 222000Z 10010KT 9999 SCT015 FEW017CB BKN200 13/07 Q1035 A3057 626.1 HR68 P1784 CB/SH NE/S AC NOSIG=
SLRYReyes14-18S-67-21W SLRY 222000Z 00000KT 9999 FEW017 SCT080 OVC200 32/26 Q1006 A2973 HR70 RWY NML=
SLRQRurrenabaque14-25S-67-29W SLRQ 222000Z 00000KT 8000 VCSH SCT015 FEW020CB BKN200 28/27 Q1005 A2970 981.7 HR93 CB/SH SW/W RESH=
SLAPApolo14-44S-68-24W SLAP 222000Z 18004KT 9999 FEW015 OVC070 26/18 Q1013 A2994 854.9 HR65=
SLSBSan Borja14-51S-66-44W COR SLSB 222000Z 15005KT 9999 BKN017 BKN200 31/26 Q1005 A2970 HR74 SH/SW RWY NML=
SLCNCharaña17-35S-69-25W
SLOROruro17-57S-67-04W SLOR 222000Z NIL=
SLUYUyuni20-27S-62-52W SLUY 222000Z 11009KT 9999 FEW025 BKN200 18/00 Q1032 A3048 657.0 HR30 AC=
SLCCCopacabana - Tito Yupanqui16-11S-69-05W SLCC 222000Z NIL=
Regional Cochabamba
EstaciónAerodromoSit. GeograficaDescripción
SLVMVillamontes21-15S-63-24W SLVM 222000Z 18017G30KT 9999 FEW025 35/22 Q1006 A2973 HR45 FU CI=
SLHIChimore16-58S-65-09W SLHI 222000Z NIL=
SLCBCochabamba17-25S-66-10W SLCB 222000Z 23003KT 9999 FEW025 SCT070 BKN200 20/13 Q1024 A3025 750.8 HR61 NOSIG=
SLALAlcantari19-14S-65-09W SLAL 222000Z 11010KT 9999 FEW020 SCT070 BKN200 20/04 Q1027 A3035 702.7 HR35=
SLPOPotosí19-32S-65-43W SLPO 222000Z NIL=
SLAGMonteagudo19-49S-63-58W SLAG 222000Z NIL=
SLTJTarija21-33S-64-42W SLTJ 222000Z 10005KT 9999 SCT033 BKN200 26/16 Q1018 A3008 813.7 HR54 AC=
SLYAYacuiba21-57S-63-39W SLYA 222000Z 21008KT 9999 SCT023 BKN200 35/23 Q1009 A2981 934.3 HR50=
SLBJBermejo22-46S-64-18W SLBJ 222000Z NIL=
Regional Santa Cruz
EstaciónAerodromoSit. GeograficaDescripción
SLVGValle Grande18-28S-64-05W SLVG 222000Z 18010KT 9999 NSC 22/13 Q1021 A3015 HR54 CS RWY NML =
SLASAscención de Guarayos15-55S-63-09W SLAS 222000Z 00000KT 9999 FEW015 BKN070 XX/XX Q1007 A2974 HRXX RWY HUM OPR=
SLCPConcepción16-08S-62-01W SLCP 222000Z 21008KT 9999 SCT015 BKN070 OVC200 28/23 Q1009 A2980 HR73 RWY NML=
SLJVSan Javier16-16S-62-28W SLJV 222000Z 18006KT 9999 SCT015 BKN200 27/23 Q1006 A2971 HR81 RWY NML=
SLTISan Matías16-20S-58-24W SLTI 222000Z 32015KT 9999 SCT017 BKN070 31/24 Q1007 A2974 HR69 RWY NML=
SLSISan Ignacio de Velasco16-23S-60-57W SLSI 222000Z 27008KT 9999 BKN015 BKN070 29/23 Q1005 A2968 HR7 RWY NML=
SLVRInternaciónal Viru Viru17-38S-63-08W SLVR 222000Z 32008KT 9999 SCT017 BKN200 31/24 Q1007 A2974 HR67 NOSIG=
SLETEl Trompillo17-48S-63-10W SLET 222000Z 32010KT 9999 SCT017 BKN200 31/24 Q1006 A2971 HR65 AC NOSIG=
SLJESan José de Chiquitos17-49S-60-44W SLJE 222000Z 00000KT 9999 FEW015 SCT070 OVC200 32/24 Q1008 A2977 HR65 RWY HUM OPR=
SLRBRoboré18-19S-59-45W SLRB 222000Z 00000KT 9999 NSC 32/24 Q1006 A2971 HR64 CI RWY HUM OPR=
SLPSPuerto Suárez18-58S-57-49W SLPS 222000Z 00000KT 9999 BKN020 BKN070 31/26 Q1002 A2959 HR77=
SLCACamiri20-00S-63-31W SLCA 222000Z 18004KT 9999 SCT036 BKN200 34/19 Q1010 A2983 HR43 RWY HUM OPR=
Regional Beni
EstaciónAerodromoSit. GeograficaDescripción
SLTRTrinidad14-49S-64-54W SLTR 222000Z 05005KT 9999 FEW015 FEW020CB SCT070 OVC200 28/24 Q1006 A2973 988.3 HR82 CB N/NE/W NOSIG=
SLCOCobija11-02S-68-47W SLCO 222000Z 27003KT 9999 FEW017 FEW020CB BKN080 25/25 Q1005 A2970 978.5 HR99 CB/SW CI=
SLGMGuayaramerín10-53S-65-23W SLGM 222000Z 02004KT 8000 VCSH SCT015 FEW020CB SCT070 OVC200 29/24 Q1007 A2975 HR73 CB/SH NE=
SLRIRiberalta11-00S-66-04W SLRI 222000Z 00000KT 8000 VCSH SCT015 FEW020CB BKN200 27/24 Q1007 A2975 HR84 CB/SH E/SE/S/NW=
SLJOSan Joaquin13-03S-64-39W SLJO 222000Z 12015G25KT 5000 -TSRA BKN010 FEW023CB OVC070 23/23 Q1006 A2973 HR98 CB/TS EW/NW RWY OPR C206=
SLRASan Ramón13-15S-64-36W SLRA 222000Z 12012KT 7000 -TSRA SCT010 FEW023CB OVC070 23/23 Q1007 A2976 HR100 TS/CB E/SE RWY OPR C206=
SLMGSan Magdalena13-15S-64-36W SLMG 222000Z 16006KT 8000 -RA FEW007 FEW023CB OVC070 23/23 Q1008 A2977 HR99 CB S/SW RWY OPR C210=
SLBUBaures13-39S-63-42W SLBU 222000Z NIL=
SLSASanta Ana de Yacuma13-45S-65-26W SLSA 222000Z 15008KT 3000 -TSRA BKN005 BKN015 FEW020CB OVC070 24/24 Q1007 A2974 HR96 CB E/SE/S TS S=
SLSRSanta Rosa14-04S-66-47W SLSR 222000Z 27008KT 9999 SCT017 FEW023CB BKN200 32/24 Q1005 A2968 HR64 CB NE/W/NW RWY NML=
SLSMSan Ignacio de Moxos14-57S-65-38W SLSM 222000Z 00000KT 9999 FEW017 FEW023CB SCT080 BKN200 28/25 Q1006 A2971 HR84 RETS CB N/NE RWY NML=